sensor_id;sensor_type;location;lat;lon;timestamp;pressure;altitude;pressure_sealevel;temperature;humidity
46241;BME280;31961;52.416;-0.732;2023-03-13T00:01:48;98435.40;;;6.93;100.00
46241;BME280;31961;52.416;-0.732;2023-03-13T00:04:16;98434.69;;;6.80;100.00
46241;BME280;31961;52.416;-0.732;2023-03-13T00:06:43;98441.55;;;6.83;100.00
46241;BME280;31961;52.416;-0.732;2023-03-13T00:09:13;98434.50;;;6.80;100.00
46241;BME280;31961;52.416;-0.732;2023-03-13T00:11:41;98425.16;;;6.87;100.00
46241;BME280;31961;52.416;-0.732;2023-03-13T00:14:08;98429.54;;;6.74;100.00
46241;BME280;31961;52.416;-0.732;2023-03-13T00:16:36;98422.62;;;6.95;100.00
46241;BME280;31961;52.416;-0.732;2023-03-13T00:19:04;98406.77;;;6.80;100.00
46241;BME280;31961;52.416;-0.732;2023-03-13T00:21:32;98420.21;;;6.90;100.00
46241;BME280;31961;52.416;-0.732;2023-03-13T00:24:00;98399.06;;;6.86;100.00
46241;BME280;31961;52.416;-0.732;2023-03-13T00:26:28;98393.92;;;7.30;100.00
46241;BME280;31961;52.416;-0.732;2023-03-13T00:28:56;98391.49;;;7.14;100.00
46241;BME280;31961;52.416;-0.732;2023-03-13T00:31:26;98372.94;;;6.71;100.00
46241;BME280;31961;52.416;-0.732;2023-03-13T00:33:56;98371.71;;;6.97;100.00
46241;BME280;31961;52.416;-0.732;2023-03-13T00:36:24;98364.89;;;7.01;100.00
46241;BME280;31961;52.416;-0.732;2023-03-13T00:38:52;98350.77;;;7.18;100.00
46241;BME280;31961;52.416;-0.732;2023-03-13T00:41:22;98337.47;;;7.07;100.00
46241;BME280;31961;52.416;-0.732;2023-03-13T00:43:50;98326.10;;;7.35;100.00
46241;BME280;31961;52.416;-0.732;2023-03-13T00:46:20;98325.49;;;6.95;100.00
46241;BME280;31961;52.416;-0.732;2023-03-13T00:48:48;98312.14;;;7.02;100.00
46241;BME280;31961;52.416;-0.732;2023-03-13T00:51:17;98322.86;;;7.26;100.00
46241;BME280;31961;52.416;-0.732;2023-03-13T00:53:45;98321.48;;;7.08;100.00
46241;BME280;31961;52.416;-0.732;2023-03-13T00:56:14;98327.38;;;7.32;100.00
46241;BME280;31961;52.416;-0.732;2023-03-13T00:58:43;98333.61;;;7.12;100.00
46241;BME280;31961;52.416;-0.732;2023-03-13T01:01:13;98329.86;;;7.33;100.00
46241;BME280;31961;52.416;-0.732;2023-03-13T01:03:43;98340.29;;;7.32;100.00
46241;BME280;31961;52.416;-0.732;2023-03-13T01:06:12;98332.65;;;7.37;100.00
46241;BME280;31961;52.416;-0.732;2023-03-13T01:08:41;98339.61;;;7.12;100.00
46241;BME280;31961;52.416;-0.732;2023-03-13T01:11:10;98329.92;;;7.02;100.00
46241;BME280;31961;52.416;-0.732;2023-03-13T01:13:38;98328.64;;;7.01;100.00
46241;BME280;31961;52.416;-0.732;2023-03-13T01:16:08;98320.13;;;7.19;100.00
46241;BME280;31961;52.416;-0.732;2023-03-13T01:18:37;98330.79;;;7.21;100.00
46241;BME280;31961;52.416;-0.732;2023-03-13T01:21:06;98323.09;;;6.82;100.00
46241;BME280;31961;52.416;-0.732;2023-03-13T01:23:33;98326.85;;;7.04;100.00
46241;BME280;31961;52.416;-0.732;2023-03-13T01:26:00;98324.47;;;7.06;100.00
46241;BME280;31961;52.416;-0.732;2023-03-13T01:28:30;98312.69;;;7.22;100.00
46241;BME280;31961;52.416;-0.732;2023-03-13T01:30:58;98309.11;;;7.22;100.00
46241;BME280;31961;52.416;-0.732;2023-03-13T01:33:25;98301.88;;;7.34;100.00
46241;BME280;31961;52.416;-0.732;2023-03-13T01:36:01;98304.42;;;6.98;100.00
46241;BME280;31961;52.416;-0.732;2023-03-13T01:38:29;98304.46;;;7.33;100.00
46241;BME280;31961;52.416;-0.732;2023-03-13T01:40:56;98295.24;;;6.87;100.00
46241;BME280;31961;52.416;-0.732;2023-03-13T01:43:25;98296.57;;;7.26;100.00
46241;BME280;31961;52.416;-0.732;2023-03-13T01:45:57;98286.48;;;6.98;100.00
46241;BME280;31961;52.416;-0.732;2023-03-13T01:48:30;98271.03;;;7.24;100.00
46241;BME280;31961;52.416;-0.732;2023-03-13T01:51:02;98267.67;;;7.19;100.00
46241;BME280;31961;52.416;-0.732;2023-03-13T01:53:32;98264.14;;;7.20;100.00
46241;BME280;31961;52.416;-0.732;2023-03-13T01:56:05;98246.00;;;7.05;100.00
46241;BME280;31961;52.416;-0.732;2023-03-13T01:58:35;98244.82;;;6.97;100.00
46241;BME280;31961;52.416;-0.732;2023-03-13T02:01:04;98247.38;;;7.06;100.00
46241;BME280;31961;52.416;-0.732;2023-03-13T02:03:32;98249.48;;;7.29;100.00
46241;BME280;31961;52.416;-0.732;2023-03-13T02:06:00;98256.75;;;7.06;100.00
46241;BME280;31961;52.416;-0.732;2023-03-13T02:08:31;98240.56;;;7.03;100.00
46241;BME280;31961;52.416;-0.732;2023-03-13T02:11:09;98235.20;;;7.20;100.00
46241;BME280;31961;52.416;-0.732;2023-03-13T02:13:39;98221.61;;;7.59;100.00
46241;BME280;31961;52.416;-0.732;2023-03-13T02:16:07;98215.78;;;7.35;100.00
46241;BME280;31961;52.416;-0.732;2023-03-13T02:18:36;98219.95;;;7.29;100.00
46241;BME280;31961;52.416;-0.732;2023-03-13T02:21:10;98202.33;;;6.96;100.00
46241;BME280;31961;52.416;-0.732;2023-03-13T02:23:48;98206.72;;;7.29;100.00
46241;BME280;31961;52.416;-0.732;2023-03-13T02:26:17;98205.70;;;7.10;100.00
46241;BME280;31961;52.416;-0.732;2023-03-13T02:28:44;98190.52;;;7.43;100.00
46241;BME280;31961;52.416;-0.732;2023-03-13T02:31:12;98181.98;;;7.21;100.00
46241;BME280;31961;52.416;-0.732;2023-03-13T02:33:40;98183.37;;;7.31;100.00
46241;BME280;31961;52.416;-0.732;2023-03-13T02:36:08;98172.69;;;7.35;100.00
46241;BME280;31961;52.416;-0.732;2023-03-13T02:38:42;98180.11;;;7.18;100.00
46241;BME280;31961;52.416;-0.732;2023-03-13T02:41:12;98168.59;;;7.15;100.00
46241;BME280;31961;52.416;-0.732;2023-03-13T02:43:39;98161.39;;;7.12;100.00
46241;BME280;31961;52.416;-0.732;2023-03-13T02:46:09;98162.65;;;6.91;100.00
46241;BME280;31961;52.416;-0.732;2023-03-13T02:48:39;98151.47;;;7.20;100.00
46241;BME280;31961;52.416;-0.732;2023-03-13T02:51:17;98141.11;;;7.17;100.00
46241;BME280;31961;52.416;-0.732;2023-03-13T03:10:26;98075.63;;;7.59;100.00
46241;BME280;31961;52.416;-0.732;2023-03-13T03:13:15;98072.64;;;5.98;100.00
46241;BME280;31961;52.416;-0.732;2023-03-13T03:15:57;98080.51;;;5.83;100.00
46241;BME280;31961;52.416;-0.732;2023-03-13T03:18:24;98077.36;;;7.03;100.00
46241;BME280;31961;52.416;-0.732;2023-03-13T03:20:52;98080.21;;;7.18;100.00
46241;BME280;31961;52.416;-0.732;2023-03-13T03:23:19;98066.31;;;7.18;100.00
46241;BME280;31961;52.416;-0.732;2023-03-13T03:25:46;98067.51;;;7.04;100.00
46241;BME280;31961;52.416;-0.732;2023-03-13T03:28:14;98070.59;;;7.10;100.00
46241;BME280;31961;52.416;-0.732;2023-03-13T03:30:41;98065.59;;;7.17;100.00
46241;BME280;31961;52.416;-0.732;2023-03-13T03:33:09;98061.24;;;7.08;100.00
46241;BME280;31961;52.416;-0.732;2023-03-13T03:35:36;98056.69;;;6.81;100.00
46241;BME280;31961;52.416;-0.732;2023-03-13T03:38:04;98046.26;;;7.14;100.00
46241;BME280;31961;52.416;-0.732;2023-03-13T03:40:31;98045.46;;;7.52;100.00
46241;BME280;31961;52.416;-0.732;2023-03-13T03:42:59;98053.38;;;7.03;100.00
46241;BME280;31961;52.416;-0.732;2023-03-13T03:45:26;98053.81;;;7.03;100.00
46241;BME280;31961;52.416;-0.732;2023-03-13T03:47:54;98044.80;;;7.36;100.00
46241;BME280;31961;52.416;-0.732;2023-03-13T03:50:21;98046.73;;;7.06;100.00
46241;BME280;31961;52.416;-0.732;2023-03-13T03:52:49;98044.02;;;6.94;100.00
46241;BME280;31961;52.416;-0.732;2023-03-13T03:55:17;98032.30;;;7.12;100.00
46241;BME280;31961;52.416;-0.732;2023-03-13T03:57:44;98029.93;;;7.02;100.00
46241;BME280;31961;52.416;-0.732;2023-03-13T04:00:12;98023.36;;;7.16;100.00
46241;BME280;31961;52.416;-0.732;2023-03-13T04:02:39;98029.17;;;7.09;100.00
46241;BME280;31961;52.416;-0.732;2023-03-13T04:05:07;98025.12;;;7.14;100.00
46241;BME280;31961;52.416;-0.732;2023-03-13T04:07:34;98017.49;;;7.16;100.00
46241;BME280;31961;52.416;-0.732;2023-03-13T04:10:02;98017.41;;;7.56;100.00
46241;BME280;31961;52.416;-0.732;2023-03-13T04:12:29;98003.95;;;7.11;100.00
46241;BME280;31961;52.416;-0.732;2023-03-13T04:14:57;98006.31;;;7.35;100.00
46241;BME280;31961;52.416;-0.732;2023-03-13T04:17:25;98002.34;;;7.59;100.00
46241;BME280;31961;52.416;-0.732;2023-03-13T04:19:52;98001.66;;;7.60;100.00
46241;BME280;31961;52.416;-0.732;2023-03-13T04:22:20;98012.27;;;7.50;100.00
46241;BME280;31961;52.416;-0.732;2023-03-13T04:24:47;98015.20;;;7.58;100.00
46241;BME280;31961;52.416;-0.732;2023-03-13T04:27:15;97986.70;;;7.34;100.00
46241;BME280;31961;52.416;-0.732;2023-03-13T04:29:42;98006.05;;;7.41;100.00
46241;BME280;31961;52.416;-0.732;2023-03-13T04:32:10;98016.71;;;7.69;100.00
46241;BME280;31961;52.416;-0.732;2023-03-13T04:34:37;98003.28;;;7.59;100.00
46241;BME280;31961;52.416;-0.732;2023-03-13T04:37:05;98003.96;;;7.66;100.00
46241;BME280;31961;52.416;-0.732;2023-03-13T04:39:32;98011.45;;;7.20;100.00
46241;BME280;31961;52.416;-0.732;2023-03-13T04:42:00;98000.33;;;7.12;100.00
46241;BME280;31961;52.416;-0.732;2023-03-13T04:44:29;97980.00;;;7.33;100.00
46241;BME280;31961;52.416;-0.732;2023-03-13T04:46:57;97982.79;;;7.26;100.00
46241;BME280;31961;52.416;-0.732;2023-03-13T04:49:24;97965.77;;;7.35;100.00
46241;BME280;31961;52.416;-0.732;2023-03-13T04:51:52;97963.56;;;7.31;100.00
46241;BME280;31961;52.416;-0.732;2023-03-13T04:54:20;97932.94;;;6.92;100.00
46241;BME280;31961;52.416;-0.732;2023-03-13T04:56:48;97931.65;;;7.18;100.00
46241;BME280;31961;52.416;-0.732;2023-03-13T04:59:15;97945.36;;;6.98;100.00
46241;BME280;31961;52.416;-0.732;2023-03-13T05:01:43;97951.01;;;7.25;100.00
46241;BME280;31961;52.416;-0.732;2023-03-13T05:04:10;97948.02;;;7.13;100.00
46241;BME280;31961;52.416;-0.732;2023-03-13T05:06:38;97957.68;;;6.87;100.00
46241;BME280;31961;52.416;-0.732;2023-03-13T05:09:06;97953.06;;;7.08;100.00
46241;BME280;31961;52.416;-0.732;2023-03-13T05:11:33;97939.66;;;7.16;100.00
46241;BME280;31961;52.416;-0.732;2023-03-13T05:14:01;97942.63;;;6.82;100.00
46241;BME280;31961;52.416;-0.732;2023-03-13T05:16:29;97932.00;;;7.18;100.00
46241;BME280;31961;52.416;-0.732;2023-03-13T05:18:56;97931.71;;;7.50;100.00
46241;BME280;31961;52.416;-0.732;2023-03-13T05:21:23;97916.11;;;7.13;100.00
46241;BME280;31961;52.416;-0.732;2023-03-13T05:23:51;97921.15;;;7.20;100.00
46241;BME280;31961;52.416;-0.732;2023-03-13T05:26:18;97923.09;;;7.08;100.00
46241;BME280;31961;52.416;-0.732;2023-03-13T05:28:46;97957.66;;;6.96;100.00
46241;BME280;31961;52.416;-0.732;2023-03-13T05:31:13;97947.90;;;6.97;100.00
46241;BME280;31961;52.416;-0.732;2023-03-13T05:33:41;97943.56;;;6.65;100.00
46241;BME280;31961;52.416;-0.732;2023-03-13T05:36:09;97922.98;;;6.54;100.00
46241;BME280;31961;52.416;-0.732;2023-03-13T05:38:36;97923.31;;;6.71;100.00
46241;BME280;31961;52.416;-0.732;2023-03-13T05:41:04;97923.97;;;6.75;100.00
46241;BME280;31961;52.416;-0.732;2023-03-13T05:43:31;97910.16;;;6.89;100.00
46241;BME280;31961;52.416;-0.732;2023-03-13T05:45:59;97924.58;;;6.75;100.00
46241;BME280;31961;52.416;-0.732;2023-03-13T05:48:26;97915.80;;;6.72;100.00
46241;BME280;31961;52.416;-0.732;2023-03-13T05:50:53;97922.45;;;7.02;100.00
46241;BME280;31961;52.416;-0.732;2023-03-13T05:53:21;97904.20;;;6.88;100.00
46241;BME280;31961;52.416;-0.732;2023-03-13T05:55:48;97903.18;;;6.73;100.00
46241;BME280;31961;52.416;-0.732;2023-03-13T05:58:16;97900.47;;;6.64;100.00
46241;BME280;31961;52.416;-0.732;2023-03-13T06:00:44;97919.58;;;6.26;100.00
46241;BME280;31961;52.416;-0.732;2023-03-13T06:03:11;97915.62;;;6.73;100.00
46241;BME280;31961;52.416;-0.732;2023-03-13T06:05:39;97916.77;;;6.69;100.00
46241;BME280;31961;52.416;-0.732;2023-03-13T06:08:06;97908.59;;;6.61;100.00
46241;BME280;31961;52.416;-0.732;2023-03-13T06:10:34;97908.92;;;6.36;100.00
46241;BME280;31961;52.416;-0.732;2023-03-13T06:13:01;97908.21;;;6.55;100.00
46241;BME280;31961;52.416;-0.732;2023-03-13T06:15:29;97899.06;;;6.57;100.00
46241;BME280;31961;52.416;-0.732;2023-03-13T06:17:57;97896.94;;;6.55;100.00
46241;BME280;31961;52.416;-0.732;2023-03-13T06:20:24;97885.45;;;7.06;100.00
46241;BME280;31961;52.416;-0.732;2023-03-13T06:22:51;97876.25;;;6.33;100.00
46241;BME280;31961;52.416;-0.732;2023-03-13T06:25:19;97889.22;;;6.35;100.00
46241;BME280;31961;52.416;-0.732;2023-03-13T06:27:46;97878.58;;;6.58;100.00
46241;BME280;31961;52.416;-0.732;2023-03-13T06:30:13;97892.32;;;6.62;100.00
46241;BME280;31961;52.416;-0.732;2023-03-13T06:32:41;97872.86;;;6.66;100.00
46241;BME280;31961;52.416;-0.732;2023-03-13T06:35:08;97868.18;;;6.66;100.00
46241;BME280;31961;52.416;-0.732;2023-03-13T06:37:36;97866.89;;;6.84;100.00
46241;BME280;31961;52.416;-0.732;2023-03-13T06:40:04;97853.84;;;6.69;100.00
46241;BME280;31961;52.416;-0.732;2023-03-13T06:42:32;97860.69;;;6.46;100.00
46241;BME280;31961;52.416;-0.732;2023-03-13T06:44:59;97858.92;;;6.79;100.00
46241;BME280;31961;52.416;-0.732;2023-03-13T06:47:27;97848.61;;;6.91;100.00
46241;BME280;31961;52.416;-0.732;2023-03-13T06:49:56;97851.67;;;6.79;100.00
46241;BME280;31961;52.416;-0.732;2023-03-13T06:52:24;97850.34;;;6.64;100.00
46241;BME280;31961;52.416;-0.732;2023-03-13T06:54:51;97847.20;;;6.77;100.00
46241;BME280;31961;52.416;-0.732;2023-03-13T06:57:19;97846.11;;;6.75;100.00
46241;BME280;31961;52.416;-0.732;2023-03-13T06:59:46;97843.43;;;6.70;100.00
46241;BME280;31961;52.416;-0.732;2023-03-13T07:02:15;97836.92;;;6.76;100.00
46241;BME280;31961;52.416;-0.732;2023-03-13T07:04:42;97843.70;;;6.77;100.00
46241;BME280;31961;52.416;-0.732;2023-03-13T07:07:10;97840.63;;;6.40;100.00
46241;BME280;31961;52.416;-0.732;2023-03-13T07:09:37;97833.80;;;6.38;100.00
46241;BME280;31961;52.416;-0.732;2023-03-13T07:12:05;97854.09;;;6.43;100.00
46241;BME280;31961;52.416;-0.732;2023-03-13T07:14:32;97843.86;;;6.49;100.00
46241;BME280;31961;52.416;-0.732;2023-03-13T07:17:00;97831.69;;;6.56;100.00
46241;BME280;31961;52.416;-0.732;2023-03-13T07:19:27;97844.57;;;6.48;100.00
46241;BME280;31961;52.416;-0.732;2023-03-13T07:21:55;97850.63;;;5.94;100.00
46241;BME280;31961;52.416;-0.732;2023-03-13T07:24:22;97849.84;;;5.74;100.00
46241;BME280;31961;52.416;-0.732;2023-03-13T07:26:50;97860.54;;;5.55;100.00
46241;BME280;31961;52.416;-0.732;2023-03-13T07:29:17;97853.16;;;5.89;100.00
46241;BME280;31961;52.416;-0.732;2023-03-13T07:31:45;97839.11;;;5.73;100.00
46241;BME280;31961;52.416;-0.732;2023-03-13T07:34:12;97857.60;;;5.68;100.00
46241;BME280;31961;52.416;-0.732;2023-03-13T07:36:39;97822.12;;;5.77;100.00
46241;BME280;31961;52.416;-0.732;2023-03-13T07:39:07;97825.76;;;5.62;100.00
46241;BME280;31961;52.416;-0.732;2023-03-13T07:41:35;97825.64;;;5.77;100.00
46241;BME280;31961;52.416;-0.732;2023-03-13T07:44:02;97828.26;;;5.81;100.00
46241;BME280;31961;52.416;-0.732;2023-03-13T07:46:30;97836.83;;;5.86;100.00
46241;BME280;31961;52.416;-0.732;2023-03-13T07:48:57;97818.34;;;5.88;100.00
46241;BME280;31961;52.416;-0.732;2023-03-13T07:51:25;97810.38;;;5.87;100.00
46241;BME280;31961;52.416;-0.732;2023-03-13T07:53:53;97816.31;;;5.71;100.00
46241;BME280;31961;52.416;-0.732;2023-03-13T07:56:21;97823.14;;;6.10;100.00
46241;BME280;31961;52.416;-0.732;2023-03-13T07:58:49;97813.80;;;5.63;100.00
46241;BME280;31961;52.416;-0.732;2023-03-13T08:01:19;97804.66;;;5.74;100.00
46241;BME280;31961;52.416;-0.732;2023-03-13T08:03:47;97798.19;;;5.83;100.00
46241;BME280;31961;52.416;-0.732;2023-03-13T08:06:16;97806.90;;;5.87;100.00
46241;BME280;31961;52.416;-0.732;2023-03-13T08:08:44;97803.36;;;6.13;100.00
46241;BME280;31961;52.416;-0.732;2023-03-13T08:11:13;97783.02;;;6.10;100.00
46241;BME280;31961;52.416;-0.732;2023-03-13T08:13:41;97807.01;;;6.46;100.00
46241;BME280;31961;52.416;-0.732;2023-03-13T08:16:10;97789.25;;;6.42;100.00
46241;BME280;31961;52.416;-0.732;2023-03-13T08:18:39;97775.20;;;6.50;100.00
46241;BME280;31961;52.416;-0.732;2023-03-13T08:21:08;97771.25;;;6.54;100.00
46241;BME280;31961;52.416;-0.732;2023-03-13T08:23:35;97790.60;;;6.63;100.00
46241;BME280;31961;52.416;-0.732;2023-03-13T08:26:05;97767.80;;;6.70;100.00
46241;BME280;31961;52.416;-0.732;2023-03-13T08:28:33;97766.40;;;6.23;100.00
46241;BME280;31961;52.416;-0.732;2023-03-13T08:31:07;97759.47;;;6.52;100.00
46241;BME280;31961;52.416;-0.732;2023-03-13T08:33:34;97763.07;;;6.43;100.00
46241;BME280;31961;52.416;-0.732;2023-03-13T08:36:09;97768.25;;;6.38;100.00
46241;BME280;31961;52.416;-0.732;2023-03-13T08:38:37;97757.73;;;6.19;100.00
46241;BME280;31961;52.416;-0.732;2023-03-13T08:41:05;97753.48;;;6.23;100.00
46241;BME280;31961;52.416;-0.732;2023-03-13T08:43:32;97752.65;;;6.38;100.00
46241;BME280;31961;52.416;-0.732;2023-03-13T08:45:58;97756.92;;;6.09;100.00
46241;BME280;31961;52.416;-0.732;2023-03-13T08:48:26;97744.79;;;6.39;100.00
46241;BME280;31961;52.416;-0.732;2023-03-13T08:51:03;97764.63;;;6.11;100.00
46241;BME280;31961;52.416;-0.732;2023-03-13T08:53:32;97757.47;;;6.22;100.00
46241;BME280;31961;52.416;-0.732;2023-03-13T08:56:00;97741.52;;;6.45;100.00
46241;BME280;31961;52.416;-0.732;2023-03-13T08:58:27;97744.54;;;6.69;100.00
46241;BME280;31961;52.416;-0.732;2023-03-13T09:01:01;97776.99;;;6.29;100.00
46241;BME280;31961;52.416;-0.732;2023-03-13T09:03:29;97752.19;;;6.78;100.00
46241;BME280;31961;52.416;-0.732;2023-03-13T09:05:57;97745.42;;;6.32;100.00
46241;BME280;31961;52.416;-0.732;2023-03-13T09:08:24;97745.03;;;6.43;100.00
46241;BME280;31961;52.416;-0.732;2023-03-13T09:10:55;97786.71;;;6.53;100.00
46241;BME280;31961;52.416;-0.732;2023-03-13T09:13:22;97767.38;;;6.23;100.00
46241;BME280;31961;52.416;-0.732;2023-03-13T09:15:54;97766.41;;;6.28;100.00
46241;BME280;31961;52.416;-0.732;2023-03-13T09:18:22;97789.15;;;5.90;100.00
46241;BME280;31961;52.416;-0.732;2023-03-13T09:20:50;97788.75;;;6.28;100.00
46241;BME280;31961;52.416;-0.732;2023-03-13T09:23:18;97802.35;;;6.33;100.00
46241;BME280;31961;52.416;-0.732;2023-03-13T09:25:46;97797.16;;;6.44;100.00
46241;BME280;31961;52.416;-0.732;2023-03-13T09:28:14;97790.95;;;6.23;100.00
46241;BME280;31961;52.416;-0.732;2023-03-13T09:30:41;97795.38;;;6.56;100.00
46241;BME280;31961;52.416;-0.732;2023-03-13T09:33:09;97778.50;;;6.65;100.00
46241;BME280;31961;52.416;-0.732;2023-03-13T09:35:38;97765.84;;;6.41;100.00
46241;BME280;31961;52.416;-0.732;2023-03-13T09:38:05;97764.62;;;6.41;100.00
46241;BME280;31961;52.416;-0.732;2023-03-13T09:40:36;97763.28;;;6.50;100.00
46241;BME280;31961;52.416;-0.732;2023-03-13T09:43:10;97764.21;;;6.74;100.00
46241;BME280;31961;52.416;-0.732;2023-03-13T09:45:45;97779.56;;;6.70;100.00
46241;BME280;31961;52.416;-0.732;2023-03-13T09:48:23;97765.11;;;6.73;100.00
46241;BME280;31961;52.416;-0.732;2023-03-13T09:51:01;97770.84;;;6.84;100.00
46241;BME280;31961;52.416;-0.732;2023-03-13T09:53:35;97781.33;;;6.68;100.00
46241;BME280;31961;52.416;-0.732;2023-03-13T09:56:13;97768.50;;;7.12;100.00
46241;BME280;31961;52.416;-0.732;2023-03-13T09:58:49;97765.40;;;7.02;100.00
46241;BME280;31961;52.416;-0.732;2023-03-13T10:01:21;97774.74;;;6.96;100.00
46241;BME280;31961;52.416;-0.732;2023-03-13T10:03:57;97765.69;;;6.88;100.00
46241;BME280;31961;52.416;-0.732;2023-03-13T10:06:32;97784.40;;;7.12;100.00
46241;BME280;31961;52.416;-0.732;2023-03-13T10:09:00;97771.89;;;7.14;100.00
46241;BME280;31961;52.416;-0.732;2023-03-13T10:11:32;97777.72;;;7.49;100.00
46241;BME280;31961;52.416;-0.732;2023-03-13T10:14:03;97769.61;;;7.16;100.00
46241;BME280;31961;52.416;-0.732;2023-03-13T10:16:38;97790.25;;;7.17;100.00
46241;BME280;31961;52.416;-0.732;2023-03-13T10:19:11;97800.14;;;6.94;100.00
46241;BME280;31961;52.416;-0.732;2023-03-13T10:21:41;97777.13;;;6.89;100.00
46241;BME280;31961;52.416;-0.732;2023-03-13T10:24:17;97771.84;;;7.12;100.00
46241;BME280;31961;52.416;-0.732;2023-03-13T10:26:45;97768.23;;;7.29;100.00
46241;BME280;31961;52.416;-0.732;2023-03-13T10:29:20;97777.52;;;7.41;100.00
46241;BME280;31961;52.416;-0.732;2023-03-13T10:31:55;97770.21;;;7.29;100.00
46241;BME280;31961;52.416;-0.732;2023-03-13T10:34:23;97770.01;;;7.35;100.00
46241;BME280;31961;52.416;-0.732;2023-03-13T10:36:56;97768.24;;;7.46;100.00
46241;BME280;31961;52.416;-0.732;2023-03-13T10:39:25;97753.88;;;7.19;100.00
46241;BME280;31961;52.416;-0.732;2023-03-13T10:41:58;97749.90;;;7.46;100.00
46241;BME280;31961;52.416;-0.732;2023-03-13T10:44:31;97778.63;;;7.47;100.00
46241;BME280;31961;52.416;-0.732;2023-03-13T10:47:00;97761.49;;;7.49;100.00
46241;BME280;31961;52.416;-0.732;2023-03-13T10:49:29;97756.80;;;7.47;100.00
46241;BME280;31961;52.416;-0.732;2023-03-13T10:51:59;97763.75;;;7.58;100.00
46241;BME280;31961;52.416;-0.732;2023-03-13T10:54:28;97757.14;;;7.89;100.00
46241;BME280;31961;52.416;-0.732;2023-03-13T10:57:13;97768.82;;;7.67;100.00
46241;BME280;31961;52.416;-0.732;2023-03-13T10:59:47;97768.51;;;7.94;100.00
46241;BME280;31961;52.416;-0.732;2023-03-13T11:02:26;97773.23;;;8.03;100.00
46241;BME280;31961;52.416;-0.732;2023-03-13T11:04:54;97751.04;;;7.81;100.00
46241;BME280;31961;52.416;-0.732;2023-03-13T11:07:26;97776.77;;;7.90;100.00
46241;BME280;31961;52.416;-0.732;2023-03-13T11:09:59;97766.65;;;8.07;100.00
46241;BME280;31961;52.416;-0.732;2023-03-13T11:12:28;97770.47;;;7.88;100.00
46241;BME280;31961;52.416;-0.732;2023-03-13T11:15:00;97775.18;;;7.79;100.00
46241;BME280;31961;52.416;-0.732;2023-03-13T11:17:33;97768.08;;;7.68;100.00
46241;BME280;31961;52.416;-0.732;2023-03-13T11:20:11;97769.49;;;7.88;100.00
46241;BME280;31961;52.416;-0.732;2023-03-13T11:22:50;97769.73;;;7.83;100.00
46241;BME280;31961;52.416;-0.732;2023-03-13T11:25:22;97778.10;;;7.79;100.00
46241;BME280;31961;52.416;-0.732;2023-03-13T11:28:03;97771.08;;;7.87;100.00
46241;BME280;31961;52.416;-0.732;2023-03-13T11:30:44;97769.33;;;7.70;100.00
46241;BME280;31961;52.416;-0.732;2023-03-13T11:33:24;97801.93;;;8.21;100.00
46241;BME280;31961;52.416;-0.732;2023-03-13T11:35:57;97769.43;;;7.98;100.00
46241;BME280;31961;52.416;-0.732;2023-03-13T11:38:31;97783.56;;;8.18;100.00
46241;BME280;31961;52.416;-0.732;2023-03-13T11:41:07;97771.83;;;8.44;100.00
46241;BME280;31961;52.416;-0.732;2023-03-13T11:43:53;97774.50;;;8.29;100.00
46241;BME280;31961;52.416;-0.732;2023-03-13T11:46:30;97774.24;;;8.18;100.00
46241;BME280;31961;52.416;-0.732;2023-03-13T11:49:21;97774.12;;;8.15;100.00
46241;BME280;31961;52.416;-0.732;2023-03-13T11:52:00;97758.68;;;8.24;100.00
46241;BME280;31961;52.416;-0.732;2023-03-13T11:54:45;97773.11;;;8.16;100.00
46241;BME280;31961;52.416;-0.732;2023-03-13T11:57:20;97769.24;;;8.15;100.00
46241;BME280;31961;52.416;-0.732;2023-03-13T12:00:02;97755.46;;;7.98;100.00
46241;BME280;31961;52.416;-0.732;2023-03-13T12:02:35;97742.42;;;7.99;100.00
46241;BME280;31961;52.416;-0.732;2023-03-13T12:05:08;97757.04;;;8.12;100.00
46241;BME280;31961;52.416;-0.732;2023-03-13T12:07:40;97756.76;;;8.04;100.00
46241;BME280;31961;52.416;-0.732;2023-03-13T12:10:11;97740.17;;;8.33;100.00
46241;BME280;31961;52.416;-0.732;2023-03-13T12:12:42;97738.19;;;8.40;100.00
46241;BME280;31961;52.416;-0.732;2023-03-13T12:15:18;97755.61;;;8.54;100.00
46241;BME280;31961;52.416;-0.732;2023-03-13T12:17:50;97751.70;;;8.52;100.00
46241;BME280;31961;52.416;-0.732;2023-03-13T12:20:24;97737.36;;;8.77;100.00
46241;BME280;31961;52.416;-0.732;2023-03-13T12:23:03;97754.48;;;8.83;100.00
46241;BME280;31961;52.416;-0.732;2023-03-13T12:25:43;97741.16;;;8.58;100.00
46241;BME280;31961;52.416;-0.732;2023-03-13T12:28:22;97754.05;;;8.56;100.00
46241;BME280;31961;52.416;-0.732;2023-03-13T12:30:59;97771.67;;;8.55;100.00
46241;BME280;31961;52.416;-0.732;2023-03-13T12:33:31;97762.10;;;8.40;100.00
46241;BME280;31961;52.416;-0.732;2023-03-13T12:36:07;97750.14;;;8.27;100.00
46241;BME280;31961;52.416;-0.732;2023-03-13T12:38:39;97741.66;;;8.47;100.00
46241;BME280;31961;52.416;-0.732;2023-03-13T12:41:17;97744.13;;;8.23;100.00
46241;BME280;31961;52.416;-0.732;2023-03-13T12:43:47;97743.05;;;8.76;100.00
46241;BME280;31961;52.416;-0.732;2023-03-13T12:46:29;97736.89;;;8.59;100.00
46241;BME280;31961;52.416;-0.732;2023-03-13T12:49:11;97742.76;;;8.74;100.00
46241;BME280;31961;52.416;-0.732;2023-03-13T12:51:51;97743.91;;;8.58;100.00
46241;BME280;31961;52.416;-0.732;2023-03-13T12:54:41;97719.52;;;8.82;100.00
46241;BME280;31961;52.416;-0.732;2023-03-13T12:57:21;97748.62;;;8.79;100.00
46241;BME280;31961;52.416;-0.732;2023-03-13T12:59:53;97730.24;;;8.92;100.00
46241;BME280;31961;52.416;-0.732;2023-03-13T13:02:23;97731.37;;;8.79;100.00
46241;BME280;31961;52.416;-0.732;2023-03-13T13:04:52;97723.05;;;8.67;100.00
46241;BME280;31961;52.416;-0.732;2023-03-13T13:07:23;97725.35;;;8.89;100.00
46241;BME280;31961;52.416;-0.732;2023-03-13T13:10:24;97718.96;;;9.19;100.00
46241;BME280;31961;52.416;-0.732;2023-03-13T13:13:57;97720.17;;;9.41;100.00
46241;BME280;31961;52.416;-0.732;2023-03-13T13:16:25;97767.67;;;10.00;100.00
46241;BME280;31961;52.416;-0.732;2023-03-13T13:18:53;97695.45;;;10.44;100.00
46241;BME280;31961;52.416;-0.732;2023-03-13T13:21:23;97697.08;;;10.20;100.00
46241;BME280;31961;52.416;-0.732;2023-03-13T13:23:50;97685.41;;;10.23;100.00